createdAt,value
2023-04-21T00:00:47.852Z,8.13
2023-04-21T00:03:24.131Z,8.12
2023-04-21T00:05:52.701Z,8.09
2023-04-21T00:08:21.066Z,8.07
2023-04-21T00:10:49.065Z,8.07
2023-04-21T00:13:16.874Z,8.07
2023-04-21T00:15:44.897Z,8.07
2023-04-21T00:18:13.549Z,8.08
2023-04-21T00:20:42.968Z,8.08
2023-04-21T00:23:11.549Z,8.07
2023-04-21T00:25:39.677Z,8.05
2023-04-21T00:28:07.929Z,8.03
2023-04-21T00:30:38.621Z,8.01
2023-04-21T00:33:06.846Z,7.99
2023-04-21T00:35:34.811Z,7.97
2023-04-21T00:38:02.880Z,7.96
2023-04-21T00:40:30.829Z,7.96
2023-04-21T00:42:59.093Z,7.97
2023-04-21T00:45:29.884Z,7.98
2023-04-21T00:47:57.906Z,7.99
2023-04-21T00:50:27.024Z,8.02
2023-04-21T00:52:56.565Z,8.03
2023-04-21T00:55:25.454Z,8.04
2023-04-21T00:57:55.742Z,8.05
2023-04-21T01:00:29.222Z,8.04
2023-04-21T01:02:59.922Z,8.02
2023-04-21T01:05:28.249Z,8.01
2023-04-21T01:07:56.460Z,7.99
2023-04-21T01:10:24.568Z,7.96
2023-04-21T01:12:52.708Z,7.93
2023-04-21T01:15:21.036Z,7.90
2023-04-21T01:17:50.018Z,7.86
2023-04-21T01:20:18.147Z,7.86
2023-04-21T01:22:47.130Z,7.87
2023-04-21T01:25:15.220Z,7.87
2023-04-21T01:27:43.139Z,7.88
2023-04-21T01:30:11.972Z,7.90
2023-04-21T01:32:39.989Z,7.94
2023-04-21T01:35:09.662Z,7.96
2023-04-21T01:37:39.929Z,7.98
2023-04-21T01:40:09.425Z,7.99
2023-04-21T01:42:44.006Z,7.96
2023-04-21T01:45:12.660Z,7.94
2023-04-21T01:47:40.872Z,7.92
2023-04-21T01:50:10.017Z,7.89
2023-04-21T01:52:38.205Z,7.85
2023-04-21T01:55:06.762Z,7.83
2023-04-21T01:57:36.413Z,7.80
2023-04-21T02:00:05.683Z,7.79
2023-04-21T02:02:43.159Z,7.78
2023-04-21T02:05:14.111Z,7.78
2023-04-21T02:07:42.769Z,7.79
2023-04-21T02:10:11.716Z,7.79
2023-04-21T02:12:39.623Z,7.80
2023-04-21T02:15:08.338Z,7.81
2023-04-21T02:17:36.685Z,7.83
2023-04-21T02:20:06.741Z,7.84
2023-04-21T02:22:34.857Z,7.86
2023-04-21T02:25:05.904Z,7.88
2023-04-21T02:27:34.169Z,7.90
2023-04-21T02:30:02.215Z,7.93
2023-04-21T02:32:31.040Z,7.97
2023-04-21T02:34:59.403Z,8.02
2023-04-21T02:37:27.426Z,8.08
2023-04-21T02:39:55.477Z,8.16
2023-04-21T02:42:23.282Z,8.22
2023-04-21T02:44:51.495Z,8.27
2023-04-21T02:47:19.664Z,8.31
2023-04-21T02:49:47.793Z,8.34
2023-04-21T02:52:16.109Z,8.36
2023-04-21T02:54:44.280Z,8.36
2023-04-21T02:57:12.277Z,8.35
2023-04-21T02:59:41.079Z,8.31
2023-04-21T03:02:09.239Z,8.26
2023-04-21T03:04:39.547Z,8.23
2023-04-21T03:07:13.052Z,8.23
2023-04-21T03:09:41.468Z,8.22
2023-04-21T03:12:09.572Z,8.20
2023-04-21T03:14:37.718Z,8.18
2023-04-21T03:17:05.760Z,8.16
2023-04-21T03:19:33.935Z,8.16
2023-04-21T03:22:02.032Z,8.14
2023-04-21T03:24:30.854Z,8.12
2023-04-21T03:26:59.418Z,8.10
2023-04-21T03:29:28.717Z,8.09
2023-04-21T03:31:56.686Z,8.06
2023-04-21T03:34:25.466Z,8.06
2023-04-21T03:36:53.491Z,8.07
2023-04-21T03:39:22.507Z,8.09
2023-04-21T03:41:51.612Z,8.13
2023-04-21T03:44:19.620Z,8.15
2023-04-21T03:46:47.481Z,8.17
2023-04-21T03:49:15.531Z,8.17
2023-04-21T03:51:43.566Z,8.20
2023-04-21T03:54:11.664Z,8.23
2023-04-21T03:56:39.714Z,8.25
2023-04-21T03:59:07.970Z,8.27
2023-04-21T04:01:35.915Z,8.30
2023-04-21T04:04:04.049Z,8.31
2023-04-21T04:06:32.822Z,8.32
2023-04-21T04:09:02.704Z,8.32
2023-04-21T04:11:31.924Z,8.32
2023-04-21T04:14:00.223Z,8.31
2023-04-21T04:16:29.396Z,8.31
2023-04-21T04:18:57.748Z,8.31
2023-04-21T04:21:25.766Z,8.31
2023-04-21T04:23:53.947Z,8.32
2023-04-21T04:26:25.463Z,8.34
2023-04-21T04:28:53.672Z,8.35
2023-04-21T04:31:25.636Z,8.37
2023-04-21T04:33:55.468Z,8.36
2023-04-21T04:36:25.013Z,8.37
2023-04-21T04:38:53.141Z,8.38
2023-04-21T04:41:22.711Z,8.41
2023-04-21T04:43:51.333Z,8.42
2023-04-21T04:46:20.910Z,8.44
2023-04-21T04:48:49.047Z,8.46
2023-04-21T04:51:17.616Z,8.48
2023-04-21T04:53:45.791Z,8.48
2023-04-21T04:56:13.814Z,8.46
2023-04-21T04:58:41.834Z,8.49
2023-04-21T05:01:17.366Z,8.54
2023-04-21T05:03:46.148Z,8.60
2023-04-21T05:06:14.409Z,8.66
2023-04-21T05:08:42.388Z,8.74
2023-04-21T05:11:10.691Z,8.82
2023-04-21T05:13:40.240Z,8.82
2023-04-21T05:16:10.304Z,8.78
2023-04-21T05:18:38.687Z,8.82
2023-04-21T05:21:06.838Z,8.88
2023-04-21T05:23:34.863Z,8.91
2023-04-21T05:26:04.707Z,8.95
2023-04-21T05:28:33.597Z,8.98
2023-04-21T05:31:02.251Z,9.01
2023-04-21T05:33:32.127Z,9.02
2023-04-21T05:36:01.143Z,9.05
2023-04-21T05:38:29.485Z,9.11
2023-04-21T05:40:57.425Z,9.17
2023-04-21T05:43:25.519Z,9.23
2023-04-21T05:45:53.945Z,9.27
2023-04-21T05:48:23.872Z,9.32
2023-04-21T05:50:52.221Z,9.37
2023-04-21T05:53:20.108Z,9.43
2023-04-21T05:55:48.227Z,9.48
2023-04-21T05:58:16.302Z,9.45
2023-04-21T06:00:44.493Z,9.46
2023-04-21T06:03:12.802Z,9.54
2023-04-21T06:05:41.252Z,9.62
2023-04-21T06:08:09.376Z,9.69
2023-04-21T06:10:37.720Z,9.78
2023-04-21T06:13:06.159Z,9.87
2023-04-21T06:15:34.210Z,9.99
2023-04-21T06:18:02.265Z,10.15
2023-04-21T06:20:30.502Z,10.36
2023-04-21T06:22:59.534Z,10.59
2023-04-21T06:25:27.805Z,10.71
2023-04-21T06:27:56.880Z,10.72
2023-04-21T06:30:25.213Z,10.82
2023-04-21T06:32:53.714Z,10.89
2023-04-21T06:35:22.232Z,11.05
2023-04-21T06:37:50.614Z,11.26
2023-04-21T06:40:18.915Z,11.62
2023-04-21T06:42:47.064Z,12.02
2023-04-21T06:45:15.457Z,12.27
2023-04-21T06:47:43.876Z,12.49
2023-04-21T06:50:12.422Z,12.64
2023-04-21T06:52:40.700Z,12.75
2023-04-21T06:55:08.972Z,12.84
2023-04-21T06:57:37.555Z,12.95
2023-04-21T07:00:06.578Z,13.03
2023-04-21T07:02:34.947Z,12.98
2023-04-21T07:05:04.089Z,12.98
2023-04-21T07:07:32.294Z,13.03
2023-04-21T07:10:00.505Z,13.07
2023-04-21T07:12:28.904Z,13.02
2023-04-21T07:14:57.033Z,13.08
2023-04-21T07:17:25.912Z,13.22
2023-04-21T07:19:54.558Z,13.19
2023-04-21T07:22:22.906Z,12.98
2023-04-21T07:24:51.410Z,13.03
2023-04-21T07:27:20.090Z,13.25
2023-04-21T07:29:48.478Z,13.49
2023-04-21T07:32:19.209Z,13.59
2023-04-21T07:34:48.628Z,13.68
2023-04-21T07:37:18.642Z,13.81
2023-04-21T07:39:46.759Z,13.71
2023-04-21T07:42:14.983Z,13.79
2023-04-21T07:44:43.282Z,14.00
2023-04-21T07:47:11.903Z,13.97
2023-04-21T07:49:40.532Z,13.67
2023-04-21T07:52:08.995Z,13.29
2023-04-21T07:54:37.358Z,13.22
2023-04-21T07:57:07.366Z,13.18
2023-04-21T07:59:36.128Z,13.22
2023-04-21T08:02:05.182Z,13.29
2023-04-21T08:04:33.905Z,13.23
2023-04-21T08:07:02.960Z,13.46
2023-04-21T08:09:31.493Z,13.72
2023-04-21T08:12:00.268Z,13.75
2023-04-21T08:14:29.918Z,14.00
2023-04-21T08:16:59.967Z,14.37
2023-04-21T08:19:28.510Z,14.33
2023-04-21T08:21:57.643Z,14.20
2023-04-21T08:24:25.916Z,14.21
2023-04-21T08:26:54.384Z,14.24
2023-04-21T08:29:23.665Z,14.42
2023-04-21T08:31:52.581Z,14.57
2023-04-21T08:34:22.531Z,14.53
2023-04-21T08:36:52.255Z,14.54
2023-04-21T08:39:20.841Z,14.60
2023-04-21T08:41:51.206Z,14.64
2023-04-21T08:44:21.446Z,15.00
2023-04-21T08:46:53.185Z,15.27
2023-04-21T08:49:22.011Z,15.51
2023-04-21T08:51:50.773Z,15.70
2023-04-21T08:54:19.912Z,15.79
2023-04-21T08:56:49.703Z,15.98
2023-04-21T08:59:19.574Z,15.82
2023-04-21T09:02:07.595Z,15.70
2023-04-21T09:04:40.296Z,15.61
2023-04-21T09:07:09.297Z,15.53
2023-04-21T09:09:58.522Z,15.88
2023-04-21T09:12:28.181Z,15.99
2023-04-21T09:15:01.277Z,15.89
2023-04-21T09:17:33.653Z,15.96
2023-04-21T09:20:21.038Z,16.22
2023-04-21T09:22:51.455Z,16.15
2023-04-21T09:25:21.053Z,15.88
2023-04-21T09:27:50.515Z,15.59
2023-04-21T09:30:20.498Z,15.59
2023-04-21T09:32:50.665Z,15.60
2023-04-21T09:35:18.786Z,15.66
2023-04-21T09:37:46.885Z,15.64
2023-04-21T09:40:18.521Z,15.90
2023-04-21T09:42:47.149Z,15.88
2023-04-21T09:45:32.980Z,16.04
2023-04-21T09:48:10.396Z,16.14
2023-04-21T09:51:22.089Z,16.30
2023-04-21T09:53:29.089Z,16.12
2023-04-21T09:55:58.925Z,16.13
2023-04-21T09:58:34.179Z,16.17
2023-04-21T10:01:04.959Z,16.29
2023-04-21T10:03:39.197Z,16.48
2023-04-21T10:06:08.831Z,16.43
2023-04-21T10:08:37.703Z,16.59
2023-04-21T10:11:07.275Z,16.84
2023-04-21T10:13:38.164Z,16.89
2023-04-21T10:16:10.535Z,16.59
2023-04-21T10:18:43.846Z,16.31
2023-04-21T10:21:18.411Z,16.31
2023-04-21T10:23:48.351Z,16.48
2023-04-21T10:26:25.902Z,16.73
2023-04-21T10:29:07.308Z,16.85
2023-04-21T10:31:56.225Z,17.01
2023-04-21T10:34:30.864Z,17.07
2023-04-21T10:36:58.904Z,17.04
2023-04-21T10:39:28.983Z,17.05
2023-04-21T10:42:15.634Z,16.94
2023-04-21T10:44:45.708Z,16.67
2023-04-21T10:47:14.219Z,16.58
2023-04-21T10:49:42.672Z,16.61
2023-04-21T10:52:12.486Z,16.47
2023-04-21T10:55:04.227Z,16.48
2023-04-21T10:57:36.850Z,16.81
2023-04-21T11:00:07.333Z,17.03
2023-04-21T11:02:39.161Z,17.03
2023-04-21T11:05:10.713Z,17.03
2023-04-21T11:07:39.294Z,17.11
2023-04-21T11:10:08.660Z,17.31
2023-04-21T11:12:41.277Z,17.36
2023-04-21T11:15:13.541Z,17.59
2023-04-21T11:17:46.319Z,17.71
2023-04-21T11:20:14.811Z,17.87
2023-04-21T11:22:43.463Z,17.89
2023-04-21T11:25:18.882Z,17.94
2023-04-21T11:28:00.083Z,18.16
2023-04-21T11:30:35.671Z,18.19
2023-04-21T11:33:04.314Z,18.25
2023-04-21T11:35:32.738Z,18.07
2023-04-21T11:38:06.112Z,17.92
2023-04-21T11:40:51.382Z,17.98
2023-04-21T11:43:21.426Z,18.07
2023-04-21T11:45:51.631Z,18.01
2023-04-21T11:48:20.651Z,17.81
2023-04-21T11:50:50.574Z,17.53
2023-04-21T11:53:20.144Z,17.07
2023-04-21T11:55:48.964Z,16.66
2023-04-21T11:58:18.350Z,16.87
2023-04-21T12:00:47.297Z,17.16
2023-04-21T12:03:16.578Z,17.34
2023-04-21T12:05:44.896Z,17.51
2023-04-21T12:08:15.597Z,17.37
2023-04-21T12:10:47.385Z,17.58
2023-04-21T12:13:27.462Z,17.77
2023-04-21T12:15:55.614Z,17.96
2023-04-21T12:18:28.408Z,18.03
2023-04-21T12:20:56.662Z,17.77
2023-04-21T12:23:24.727Z,17.15
2023-04-21T12:25:52.974Z,17.29
2023-04-21T12:28:21.223Z,17.32
2023-04-21T12:30:49.672Z,17.57
2023-04-21T12:33:18.059Z,17.48
2023-04-21T12:35:46.502Z,17.24
2023-04-21T12:38:14.759Z,17.32
2023-04-21T12:40:43.076Z,17.43
2023-04-21T12:43:11.762Z,17.41
2023-04-21T12:45:40.024Z,17.32
2023-04-21T12:48:08.372Z,17.32
2023-04-21T12:50:36.445Z,17.45
2023-04-21T12:53:05.327Z,17.66
2023-04-21T12:55:36.678Z,17.87
2023-04-21T12:58:05.042Z,17.81
2023-04-21T13:00:36.052Z,17.78
2023-04-21T13:03:05.122Z,17.57
2023-04-21T13:05:34.130Z,17.47
2023-04-21T13:08:02.359Z,17.36
2023-04-21T13:10:30.439Z,17.24
2023-04-21T13:12:58.544Z,17.32
2023-04-21T13:15:26.851Z,17.35
2023-04-21T13:17:55.714Z,17.22
2023-04-21T13:20:24.096Z,17.15
2023-04-21T13:22:53.167Z,17.20
2023-04-21T13:25:23.199Z,17.10
2023-04-21T13:27:53.362Z,16.87
2023-04-21T13:30:22.399Z,16.66
2023-04-21T13:32:51.119Z,16.71
2023-04-21T13:35:19.992Z,16.72
2023-04-21T13:37:49.416Z,16.78
2023-04-21T13:40:17.656Z,16.79
2023-04-21T13:42:46.306Z,16.58
2023-04-21T13:45:14.541Z,16.61
2023-04-21T13:47:43.704Z,16.68
2023-04-21T13:50:11.955Z,16.62
2023-04-21T13:52:40.096Z,16.73
2023-04-21T13:55:08.514Z,16.86
2023-04-21T13:57:36.957Z,16.86
2023-04-21T14:00:06.755Z,16.89
2023-04-21T14:02:35.739Z,16.89
2023-04-21T14:05:05.553Z,16.82
2023-04-21T14:07:35.271Z,16.77
2023-04-21T14:10:04.527Z,16.75
2023-04-21T14:12:32.780Z,16.66
2023-04-21T14:15:00.909Z,16.61
2023-04-21T14:17:29.113Z,16.65
2023-04-21T14:19:57.255Z,16.71
2023-04-21T14:22:25.385Z,16.75
2023-04-21T14:24:53.409Z,16.78
2023-04-21T14:27:21.869Z,16.78
2023-04-21T14:29:50.238Z,16.74
2023-04-21T14:32:20.793Z,16.80
2023-04-21T14:34:53.472Z,16.86
2023-04-21T14:37:22.377Z,16.86
2023-04-21T14:39:51.192Z,16.71
2023-04-21T14:42:19.523Z,16.65
2023-04-21T14:44:48.081Z,16.56
2023-04-21T14:47:16.613Z,16.55
2023-04-21T14:49:45.172Z,16.53
2023-04-21T14:52:13.878Z,16.55
2023-04-21T14:54:42.059Z,16.51
2023-04-21T14:57:20.558Z,16.47
2023-04-21T14:59:51.870Z,16.53
2023-04-21T15:02:22.025Z,16.56
2023-04-21T15:04:51.665Z,16.50
2023-04-21T15:07:24.290Z,16.52
2023-04-21T15:09:53.547Z,16.48
2023-04-21T15:12:22.002Z,16.42
2023-04-21T15:14:50.433Z,16.37
2023-04-21T15:17:18.713Z,16.34
2023-04-21T15:19:47.016Z,16.43
2023-04-21T15:22:15.523Z,16.49
2023-04-21T15:24:44.047Z,16.53
2023-04-21T15:27:12.759Z,16.56
2023-04-21T15:29:41.105Z,16.55
2023-04-21T15:32:10.196Z,16.53
2023-04-21T15:34:38.188Z,16.50
2023-04-21T15:37:06.416Z,16.55
2023-04-21T15:39:34.991Z,16.60
2023-04-21T15:42:04.891Z,16.57
2023-04-21T15:44:34.406Z,16.49
2023-04-21T15:47:03.476Z,16.50
2023-04-21T15:49:32.095Z,16.53
2023-04-21T15:52:02.215Z,16.55
2023-04-21T15:54:31.413Z,16.54
2023-04-21T15:56:59.894Z,16.55
2023-04-21T15:59:28.462Z,16.56
2023-04-21T16:01:59.526Z,16.51
2023-04-21T16:04:28.783Z,16.45
2023-04-21T16:06:57.480Z,16.37
2023-04-21T16:09:26.159Z,16.33
2023-04-21T16:11:54.265Z,16.26
2023-04-21T16:14:22.407Z,16.22
2023-04-21T16:16:50.819Z,16.20
2023-04-21T16:19:19.122Z,16.14
2023-04-21T16:21:47.208Z,16.10
2023-04-21T16:24:15.583Z,16.03
2023-04-21T16:26:43.761Z,16.01
2023-04-21T16:29:12.214Z,15.98
2023-04-21T16:31:40.493Z,15.94
2023-04-21T16:34:09.303Z,15.85
2023-04-21T16:36:38.386Z,15.81
2023-04-21T16:39:06.714Z,15.78
2023-04-21T16:41:34.962Z,15.76
2023-04-21T16:44:03.177Z,15.72
2023-04-21T16:46:31.526Z,15.69
2023-04-21T16:49:00.363Z,15.65
2023-04-21T16:51:28.860Z,15.63
2023-04-21T16:53:57.162Z,15.60
2023-04-21T16:56:25.805Z,15.56
2023-04-21T16:58:53.921Z,15.49
2023-04-21T17:01:21.953Z,15.46
2023-04-21T17:03:50.309Z,15.44
2023-04-21T17:06:21.341Z,15.41
2023-04-21T17:08:49.835Z,15.35
2023-04-21T17:11:18.331Z,15.30
2023-04-21T17:13:46.820Z,15.25
2023-04-21T17:16:15.312Z,15.22
2023-04-21T17:18:43.506Z,15.20
2023-04-21T17:21:12.605Z,15.17
2023-04-21T17:23:41.387Z,15.10
2023-04-21T17:26:11.602Z,15.05
2023-04-21T17:28:41.494Z,14.98
2023-04-21T17:31:15.911Z,14.93
2023-04-21T17:33:45.623Z,14.89
2023-04-21T17:36:14.006Z,14.84
2023-04-21T17:38:42.912Z,14.80
2023-04-21T17:41:11.762Z,14.75
2023-04-21T17:43:40.030Z,14.72
2023-04-21T17:46:08.200Z,14.69
2023-04-21T17:48:36.297Z,14.65
2023-04-21T17:51:04.398Z,14.60
2023-04-21T17:53:32.749Z,14.53
2023-04-21T17:56:01.250Z,14.44
2023-04-21T17:58:29.172Z,14.38
2023-04-21T18:00:57.242Z,14.32
2023-04-21T18:03:25.939Z,14.27
2023-04-21T18:05:55.158Z,14.24
2023-04-21T18:08:23.461Z,14.21
2023-04-21T18:10:51.866Z,14.17
2023-04-21T18:13:19.815Z,14.12
2023-04-21T18:15:48.003Z,14.09
2023-04-21T18:18:16.282Z,14.05
2023-04-21T18:20:44.556Z,14.02
2023-04-21T18:23:12.912Z,13.99
2023-04-21T18:25:43.054Z,13.95
2023-04-21T18:28:13.125Z,13.91
2023-04-21T18:30:42.534Z,13.86
2023-04-21T18:33:13.826Z,13.80
2023-04-21T18:35:42.569Z,13.76
2023-04-21T18:38:13.347Z,13.70
2023-04-21T18:40:42.266Z,13.65
2023-04-21T18:43:11.214Z,13.60
2023-04-21T18:45:39.759Z,13.56
2023-04-21T18:48:08.424Z,13.52
2023-04-21T18:50:40.399Z,13.50
2023-04-21T18:53:09.309Z,13.49
2023-04-21T18:55:38.145Z,13.47
2023-04-21T18:58:07.166Z,13.45
2023-04-21T19:00:39.146Z,13.42
2023-04-21T19:03:08.872Z,13.38
2023-04-21T19:05:38.548Z,13.34
2023-04-21T19:08:09.338Z,13.30
2023-04-21T19:10:38.182Z,13.26
2023-04-21T19:13:06.571Z,13.23
2023-04-21T19:15:35.503Z,13.21
2023-04-21T19:18:03.920Z,13.18
2023-04-21T19:20:32.583Z,13.14
2023-04-21T19:23:00.580Z,13.11
2023-04-21T19:25:28.642Z,13.09
2023-04-21T19:27:57.116Z,13.08
2023-04-21T19:30:25.403Z,13.05
2023-04-21T19:32:54.589Z,13.00
2023-04-21T19:35:22.855Z,12.95
2023-04-21T19:37:50.874Z,12.92
2023-04-21T19:40:19.432Z,12.88
2023-04-21T19:42:47.561Z,12.86
2023-04-21T19:45:16.720Z,12.83
2023-04-21T19:47:44.871Z,12.79
2023-04-21T19:50:13.378Z,12.76
2023-04-21T19:52:41.937Z,12.74
2023-04-21T19:55:09.906Z,12.70
2023-04-21T19:57:37.965Z,12.65
2023-04-21T20:00:11.601Z,12.60
2023-04-21T20:02:42.862Z,12.55
2023-04-21T20:05:11.039Z,12.51
2023-04-21T20:07:39.817Z,12.46
2023-04-21T20:10:10.371Z,12.39
2023-04-21T20:12:38.426Z,12.32
2023-04-21T20:15:07.425Z,12.27
2023-04-21T20:17:35.838Z,12.21
2023-04-21T20:20:09.552Z,12.17
2023-04-21T20:22:37.843Z,12.12
2023-04-21T20:25:07.476Z,12.08
2023-04-21T20:27:35.522Z,12.02
2023-04-21T20:30:04.045Z,11.96
2023-04-21T20:32:32.819Z,11.92
2023-04-21T20:35:00.974Z,11.87
2023-04-21T20:37:29.746Z,11.83
2023-04-21T20:40:00.549Z,11.78
2023-04-21T20:42:28.410Z,11.72
2023-04-21T20:44:56.465Z,11.66
2023-04-21T20:47:25.027Z,11.60
2023-04-21T20:49:54.170Z,11.53
2023-04-21T20:52:22.181Z,11.46
2023-04-21T20:54:50.432Z,11.40
2023-04-21T20:57:18.554Z,11.34
2023-04-21T20:59:46.700Z,11.29
2023-04-21T21:02:14.786Z,11.23
2023-04-21T21:04:43.286Z,11.19
2023-04-21T21:07:11.201Z,11.13
2023-04-21T21:09:40.195Z,11.07
2023-04-21T21:12:08.704Z,11.03
2023-04-21T21:14:36.692Z,11.00
2023-04-21T21:17:05.112Z,11.00
2023-04-21T21:19:33.452Z,11.00
2023-04-21T21:22:01.597Z,10.99
2023-04-21T21:24:29.875Z,11.01
2023-04-21T21:26:58.247Z,11.02
2023-04-21T21:29:26.317Z,11.01
2023-04-21T21:31:54.471Z,10.98
2023-04-21T21:34:22.515Z,10.94
2023-04-21T21:36:50.664Z,10.89
2023-04-21T21:39:18.603Z,10.85
2023-04-21T21:41:46.654Z,10.80
2023-04-21T21:44:14.952Z,10.74
2023-04-21T21:46:43.379Z,10.69
2023-04-21T21:49:11.557Z,10.63
2023-04-21T21:51:39.451Z,10.59
2023-04-21T21:54:07.424Z,10.55
2023-04-21T21:56:36.648Z,10.51
2023-04-21T21:59:04.907Z,10.47
2023-04-21T22:01:33.119Z,10.46
2023-04-21T22:04:01.379Z,10.46
2023-04-21T22:06:29.365Z,10.46
2023-04-21T22:08:57.507Z,10.44
2023-04-21T22:11:25.540Z,10.43
2023-04-21T22:13:53.581Z,10.43
2023-04-21T22:16:22.695Z,10.46
2023-04-21T22:18:51.033Z,10.50
2023-04-21T22:21:20.651Z,10.52
2023-04-21T22:23:48.768Z,10.54
2023-04-21T22:26:16.779Z,10.55
2023-04-21T22:28:47.360Z,10.56
2023-04-21T22:31:16.526Z,10.58
2023-04-21T22:33:44.378Z,10.59
2023-04-21T22:36:12.350Z,10.59
2023-04-21T22:38:40.523Z,10.58
2023-04-21T22:41:08.769Z,10.58
2023-04-21T22:43:36.780Z,10.56
2023-04-21T22:46:05.290Z,10.56
2023-04-21T22:48:33.893Z,10.54
2023-04-21T22:51:03.035Z,10.53
2023-04-21T22:53:31.566Z,10.54
2023-04-21T22:55:59.858Z,10.54
2023-04-21T22:58:27.915Z,10.53
2023-04-21T23:00:55.988Z,10.53
2023-04-21T23:03:24.291Z,10.53
2023-04-21T23:05:52.691Z,10.53
2023-04-21T23:08:20.841Z,10.52
2023-04-21T23:10:48.982Z,10.52
2023-04-21T23:13:17.230Z,10.53
2023-04-21T23:15:45.174Z,10.53
2023-04-21T23:18:13.096Z,10.53
2023-04-21T23:20:41.144Z,10.53
2023-04-21T23:23:09.514Z,10.52
2023-04-21T23:25:37.884Z,10.51
2023-04-21T23:28:05.903Z,10.51
2023-04-21T23:30:33.915Z,10.50
2023-04-21T23:33:02.230Z,10.50
2023-04-21T23:35:30.649Z,10.50
2023-04-21T23:37:58.544Z,10.50
2023-04-21T23:40:26.777Z,10.50
2023-04-21T23:42:54.741Z,10.50
2023-04-21T23:45:22.830Z,10.51
2023-04-21T23:47:51.003Z,10.52
2023-04-21T23:50:19.069Z,10.52
2023-04-21T23:52:47.287Z,10.50
2023-04-21T23:55:15.329Z,10.50
2023-04-21T23:57:47.154Z,10.48
